createdAt,value
2022-10-22T00:04:05.451Z,13.816053511705686
2022-10-22T00:15:50.564Z,14.046822742474916
2022-10-22T00:22:18.673Z,14.143812709030101
2022-10-22T00:33:56.687Z,13.986622073578594
2022-10-22T00:48:07.805Z,12.939799331103679
2022-10-22T00:54:35.721Z,13.451505016722408
2022-10-22T01:01:07.936Z,13.264214046822742
2022-10-22T01:07:37.124Z,12.862876254180602
2022-10-22T01:14:06.735Z,13.953177257525084
2022-10-22T01:21:22.993Z,12.421404682274247
2022-10-22T01:28:04.944Z,12.555183946488294
2022-10-22T01:34:33.823Z,12.725752508361204
2022-10-22T01:41:01.010Z,11.91638795986622
2022-10-22T02:00:37.335Z,11.849498327759198
2022-10-22T02:07:05.058Z,11.404682274247492
2022-10-22T02:13:33.683Z,12.237458193979933
2022-10-22T02:20:04.855Z,11.85953177257525
2022-10-22T02:26:43.239Z,11.976588628762542
2022-10-22T02:33:11.016Z,11.989966555183946
2022-10-22T02:40:33.877Z,12.334448160535118
2022-10-22T02:47:01.133Z,11.755852842809364
2022-10-22T02:53:31.397Z,11.752508361204013
2022-10-22T03:00:01.034Z,12.153846153846153
2022-10-22T03:06:30.961Z,11.755852842809364
2022-10-22T03:17:10.062Z,12.638795986622073
2022-10-22T03:29:04.371Z,12.62541806020067
2022-10-22T03:49:26.523Z,12.729096989966555
2022-10-22T03:58:40.965Z,12.224080267558529
2022-10-22T04:15:22.839Z,12.0
2022-10-22T04:22:12.656Z,12.719063545150501
2022-10-22T04:28:51.917Z,13.17056856187291
2022-10-22T04:45:44.352Z,12.418060200668897
2022-10-22T04:52:54.423Z,13.391304347826088
2022-10-22T05:03:05.877Z,13.050167224080267
2022-10-22T05:16:08.338Z,13.277591973244148
2022-10-22T05:23:43.716Z,13.876254180602007
2022-10-22T05:30:14.698Z,13.528428093645484
2022-10-22T05:36:47.239Z,12.678929765886288
2022-10-22T05:43:24.866Z,12.217391304347826
2022-10-22T05:49:54.339Z,12.334448160535118
2022-10-22T05:56:23.810Z,12.207357859531772
2022-10-22T06:05:04.483Z,12.14046822742475
2022-10-22T06:11:36.048Z,12.217391304347826
2022-10-22T06:18:08.750Z,12.240802675585284
2022-10-22T06:24:50.553Z,12.896321070234114
2022-10-22T06:31:54.694Z,12.809364548494983
2022-10-22T06:43:38.095Z,13.19732441471572
2022-10-22T06:56:37.944Z,14.816053511705686
2022-10-22T07:09:27.517Z,14.016722408026755
2022-10-22T07:18:09.496Z,14.762541806020067
2022-10-22T07:24:40.519Z,14.615384615384615
2022-10-22T07:31:25.718Z,13.622073578595318
2022-10-22T07:38:01.085Z,13.889632107023411
2022-10-22T07:44:32.257Z,13.190635451505017
2022-10-22T07:51:03.811Z,13.538461538461538
2022-10-22T08:06:45.795Z,12.852842809364548
2022-10-22T08:13:17.475Z,12.568561872909699
2022-10-22T08:19:52.107Z,11.632107023411372
2022-10-22T08:28:04.909Z,11.88628762541806
2022-10-22T08:34:33.494Z,11.264214046822742
2022-10-22T08:41:07.005Z,10.645484949832776
2022-10-22T08:47:38.264Z,9.62876254180602
2022-10-22T08:56:03.354Z,8.819397993311037
2022-10-22T09:02:35.459Z,8.070234113712374
2022-10-22T09:09:07.540Z,7.301003344481606
2022-10-22T09:15:42.613Z,6.210702341137123
2022-10-22T09:22:16.101Z,6.585284280936455
2022-10-22T09:35:23.059Z,6.033444816053512
2022-10-22T09:41:57.619Z,5.839464882943144
2022-10-22T09:51:55.069Z,5.2842809364548495
2022-10-22T09:58:25.785Z,5.050167224080267
2022-10-22T10:07:39.073Z,5.351170568561873
2022-10-22T10:14:13.105Z,4.785953177257525
2022-10-22T10:20:44.708Z,4.678929765886288
2022-10-22T10:37:35.021Z,5.0602006688963215
2022-10-22T10:44:10.157Z,5.729096989966555
2022-10-22T10:50:39.623Z,6.190635451505017
2022-10-22T11:01:21.770Z,6.461538461538462
2022-10-22T11:12:58.349Z,6.2207357859531776
2022-10-22T11:19:46.218Z,5.956521739130435
2022-10-22T11:26:19.058Z,3.9264214046822743
2022-10-22T11:32:48.063Z,3.8662207357859533
2022-10-22T11:39:16.605Z,3.250836120401338
2022-10-22T11:45:45.321Z,3.819397993311037
2022-10-22T11:52:13.974Z,3.6755852842809364
2022-10-22T11:58:41.997Z,4.4280936454849495
2022-10-22T12:05:10.378Z,4.638795986622074
2022-10-22T12:12:07.313Z,4.434782608695652
2022-10-22T12:18:36.395Z,3.9966555183946486
2022-10-22T12:28:02.458Z,4.391304347826087
2022-10-22T12:35:57.346Z,4.207357859531773
2022-10-22T12:46:19.538Z,4.816053511705686
2022-10-22T12:52:48.449Z,5.2040133779264215
2022-10-22T13:05:01.596Z,4.809364548494983
2022-10-22T13:15:32.616Z,4.688963210702341
2022-10-22T13:22:01.386Z,4.264214046822742
2022-10-22T13:28:41.830Z,4.608695652173913
2022-10-22T13:35:12.224Z,4.973244147157191
2022-10-22T13:44:06.016Z,4.882943143812709
2022-10-22T13:55:05.946Z,4.7324414715719065
2022-10-22T14:01:36.348Z,4.709030100334449
2022-10-22T14:08:15.612Z,4.0200668896321075
2022-10-22T14:15:00.602Z,4.528428093645485
2022-10-22T14:21:28.857Z,3.6354515050167224
2022-10-22T14:29:11.059Z,2.869565217391304
2022-10-22T14:40:19.861Z,3.25752508361204
2022-10-22T14:47:13.913Z,2.688963210702341
2022-10-22T14:55:41.889Z,3.060200668896321
2022-10-22T15:15:18.213Z,3.297658862876254
2022-10-22T15:25:21.355Z,3.4214046822742477
2022-10-22T15:32:16.348Z,3.5451505016722407
2022-10-22T15:38:47.226Z,3.130434782608696
2022-10-22T15:45:43.026Z,3.2441471571906355
2022-10-22T15:52:15.529Z,3.3946488294314383
2022-10-22T15:58:44.339Z,3.983277591973244
2022-10-22T16:05:15.658Z,4.026755852842809
2022-10-22T16:11:46.421Z,5.254180602006689
2022-10-22T16:20:33.762Z,5.006688963210703
2022-10-22T16:27:08.291Z,5.441471571906354
2022-10-22T16:39:07.195Z,5.575250836120401
2022-10-22T16:45:50.913Z,5.183946488294314
2022-10-22T16:52:36.494Z,6.872909698996655
2022-10-22T16:59:16.057Z,7.421404682274248
2022-10-22T17:05:51.602Z,6.080267558528428
2022-10-22T17:12:33.933Z,6.2274247491638794
2022-10-22T17:19:12.370Z,6.1237458193979935
2022-10-22T17:25:50.060Z,6.270903010033445
2022-10-22T17:32:23.937Z,6.107023411371237
2022-10-22T17:38:55.161Z,6.421404682274248
2022-10-22T17:49:41.168Z,6.7157190635451505
2022-10-22T17:56:13.506Z,6.441471571906354
2022-10-22T18:02:41.832Z,7.478260869565218
2022-10-22T18:09:17.299Z,7.862876254180602
2022-10-22T18:15:53.009Z,7.210702341137123
2022-10-22T18:22:48.901Z,7.127090301003345
2022-10-22T18:29:42.514Z,7.280936454849498
2022-10-22T18:36:19.319Z,8.244147157190636
2022-10-22T18:49:57.209Z,8.190635451505017
2022-10-22T18:57:04.530Z,8.879598662207357
2022-10-22T19:06:55.728Z,8.421404682274247
2022-10-22T19:23:40.436Z,8.384615384615385
2022-10-22T19:30:36.583Z,8.528428093645484
2022-10-22T19:37:10.820Z,9.066889632107024
2022-10-22T19:43:45.977Z,8.876254180602007
2022-10-22T19:57:54.543Z,9.063545150501673
2022-10-22T20:04:25.814Z,11.117056856187292
2022-10-22T20:11:03.955Z,10.163879598662207
2022-10-22T20:17:33.919Z,10.137123745819398
2022-10-22T20:24:16.064Z,9.384615384615385
2022-10-22T20:30:49.244Z,9.946488294314381
2022-10-22T21:04:15.544Z,9.418060200668897
2022-10-22T21:13:43.643Z,9.14046822742475
2022-10-22T21:20:11.742Z,9.535117056856187
2022-10-22T21:30:10.777Z,10.842809364548495
2022-10-22T21:42:51.719Z,12.076923076923077
2022-10-22T21:49:19.106Z,10.926421404682275
2022-10-22T21:55:46.896Z,11.65551839464883
2022-10-22T22:02:14.913Z,11.668896321070234
2022-10-22T22:08:44.125Z,12.03010033444816
2022-10-22T22:20:22.631Z,12.013377926421406
2022-10-22T22:30:07.192Z,11.421404682274247
2022-10-22T22:36:37.045Z,11.307692307692308
2022-10-22T22:43:06.682Z,11.22742474916388
2022-10-22T22:55:41.336Z,11.468227424749164
2022-10-22T23:02:11.057Z,11.394648829431437
2022-10-22T23:17:12.540Z,11.531772575250836
2022-10-22T23:23:51.239Z,11.765886287625419
2022-10-22T23:30:21.687Z,11.785953177257525
2022-10-22T23:46:39.512Z,12.137123745819398
2022-10-22T23:53:22.336Z,12.110367892976589
